sensor_id;sensor_type;location;lat;lon;timestamp;temperature;humidity
21355;DHT22;10835;50.148;19.760;2023-06-10T00:00:43;29.00;54.90
21355;DHT22;10835;50.148;19.760;2023-06-10T00:03:11;29.10;54.80
21355;DHT22;10835;50.148;19.760;2023-06-10T00:05:40;29.30;54.40
21355;DHT22;10835;50.148;19.760;2023-06-10T00:08:10;29.30;54.10
21355;DHT22;10835;50.148;19.760;2023-06-10T00:10:38;29.40;53.70
21355;DHT22;10835;50.148;19.760;2023-06-10T00:13:07;29.60;53.90
21355;DHT22;10835;50.148;19.760;2023-06-10T00:15:35;29.60;54.00
21355;DHT22;10835;50.148;19.760;2023-06-10T00:18:04;29.70;53.70
21355;DHT22;10835;50.148;19.760;2023-06-10T00:20:32;29.80;53.70
21355;DHT22;10835;50.148;19.760;2023-06-10T00:23:04;29.90;53.60
21355;DHT22;10835;50.148;19.760;2023-06-10T00:25:36;30.00;54.50
21355;DHT22;10835;50.148;19.760;2023-06-10T00:28:04;30.00;53.60
21355;DHT22;10835;50.148;19.760;2023-06-10T00:30:33;30.20;53.50
21355;DHT22;10835;50.148;19.760;2023-06-10T00:33:01;30.10;53.50
21355;DHT22;10835;50.148;19.760;2023-06-10T00:35:29;30.10;53.20
21355;DHT22;10835;50.148;19.760;2023-06-10T00:37:59;30.10;53.30
21355;DHT22;10835;50.148;19.760;2023-06-10T00:40:28;30.20;53.10
21355;DHT22;10835;50.148;19.760;2023-06-10T00:42:59;30.30;52.90
21355;DHT22;10835;50.148;19.760;2023-06-10T00:45:27;30.10;53.10
21355;DHT22;10835;50.148;19.760;2023-06-10T00:47:57;30.00;53.60
21355;DHT22;10835;50.148;19.760;2023-06-10T00:50:26;30.10;53.50
21355;DHT22;10835;50.148;19.760;2023-06-10T00:52:55;30.30;53.10
21355;DHT22;10835;50.148;19.760;2023-06-10T00:55:24;30.20;53.30
21355;DHT22;10835;50.148;19.760;2023-06-10T00:57:54;30.30;53.20
21355;DHT22;10835;50.148;19.760;2023-06-10T01:00:24;30.30;53.20
21355;DHT22;10835;50.148;19.760;2023-06-10T01:02:53;30.40;52.70
21355;DHT22;10835;50.148;19.760;2023-06-10T01:05:23;30.40;52.60
21355;DHT22;10835;50.148;19.760;2023-06-10T01:08:00;30.30;52.70
21355;DHT22;10835;50.148;19.760;2023-06-10T01:10:33;30.40;52.80
21355;DHT22;10835;50.148;19.760;2023-06-10T01:13:06;30.30;52.90
21355;DHT22;10835;50.148;19.760;2023-06-10T01:15:37;30.20;53.10
21355;DHT22;10835;50.148;19.760;2023-06-10T01:18:06;30.20;53.20
21355;DHT22;10835;50.148;19.760;2023-06-10T01:20:37;30.10;53.60
21355;DHT22;10835;50.148;19.760;2023-06-10T01:23:09;30.00;53.70
21355;DHT22;10835;50.148;19.760;2023-06-10T01:25:40;30.00;53.90
21355;DHT22;10835;50.148;19.760;2023-06-10T01:28:22;30.10;53.80
21355;DHT22;10835;50.148;19.760;2023-06-10T01:30:58;30.20;53.70
21355;DHT22;10835;50.148;19.760;2023-06-10T01:33:31;30.20;53.70
21355;DHT22;10835;50.148;19.760;2023-06-10T01:36:01;30.20;53.60
21355;DHT22;10835;50.148;19.760;2023-06-10T01:38:38;30.30;53.60
21355;DHT22;10835;50.148;19.760;2023-06-10T01:41:08;30.40;53.40
21355;DHT22;10835;50.148;19.760;2023-06-10T01:43:39;30.30;53.30
21355;DHT22;10835;50.148;19.760;2023-06-10T01:46:08;30.40;53.40
21355;DHT22;10835;50.148;19.760;2023-06-10T01:48:36;30.50;53.20
21355;DHT22;10835;50.148;19.760;2023-06-10T01:51:05;30.50;53.10
21355;DHT22;10835;50.148;19.760;2023-06-10T01:53:37;30.60;52.90
21355;DHT22;10835;50.148;19.760;2023-06-10T01:56:05;30.70;52.70
21355;DHT22;10835;50.148;19.760;2023-06-10T01:58:33;30.70;52.60
21355;DHT22;10835;50.148;19.760;2023-06-10T02:01:02;30.70;52.30
21355;DHT22;10835;50.148;19.760;2023-06-10T02:03:30;30.80;52.10
21355;DHT22;10835;50.148;19.760;2023-06-10T02:05:58;30.70;51.70
21355;DHT22;10835;50.148;19.760;2023-06-10T02:08:26;30.60;51.90
21355;DHT22;10835;50.148;19.760;2023-06-10T02:10:56;30.60;52.00
21355;DHT22;10835;50.148;19.760;2023-06-10T02:13:27;30.60;52.00
21355;DHT22;10835;50.148;19.760;2023-06-10T02:15:56;30.60;51.20
21355;DHT22;10835;50.148;19.760;2023-06-10T02:18:28;30.50;51.70
21355;DHT22;10835;50.148;19.760;2023-06-10T02:20:57;30.40;51.70
21355;DHT22;10835;50.148;19.760;2023-06-10T02:23:26;30.40;51.40
21355;DHT22;10835;50.148;19.760;2023-06-10T02:25:55;30.30;51.70
21355;DHT22;10835;50.148;19.760;2023-06-10T02:28:24;30.00;52.20
21355;DHT22;10835;50.148;19.760;2023-06-10T02:30:53;30.10;52.60
21355;DHT22;10835;50.148;19.760;2023-06-10T02:33:21;30.10;52.50
21355;DHT22;10835;50.148;19.760;2023-06-10T02:35:50;30.20;52.40
21355;DHT22;10835;50.148;19.760;2023-06-10T02:38:19;30.40;52.00
21355;DHT22;10835;50.148;19.760;2023-06-10T02:40:48;30.50;51.70
21355;DHT22;10835;50.148;19.760;2023-06-10T02:43:19;30.40;51.90
21355;DHT22;10835;50.148;19.760;2023-06-10T02:45:48;30.40;51.90
21355;DHT22;10835;50.148;19.760;2023-06-10T02:48:20;30.30;51.90
21355;DHT22;10835;50.148;19.760;2023-06-10T02:50:48;30.40;52.00
21355;DHT22;10835;50.148;19.760;2023-06-10T02:53:23;30.30;52.40
21355;DHT22;10835;50.148;19.760;2023-06-10T02:55:57;30.30;52.20
21355;DHT22;10835;50.148;19.760;2023-06-10T02:58:27;30.20;52.40
21355;DHT22;10835;50.148;19.760;2023-06-10T03:00:56;30.20;52.50
21355;DHT22;10835;50.148;19.760;2023-06-10T03:03:27;30.40;52.30
21355;DHT22;10835;50.148;19.760;2023-06-10T03:06:02;30.20;53.00
21355;DHT22;10835;50.148;19.760;2023-06-10T03:08:32;30.10;52.70
21355;DHT22;10835;50.148;19.760;2023-06-10T03:11:05;30.00;53.40
21355;DHT22;10835;50.148;19.760;2023-06-10T03:13:36;30.00;53.20
21355;DHT22;10835;50.148;19.760;2023-06-10T03:16:04;30.00;53.20
21355;DHT22;10835;50.148;19.760;2023-06-10T03:18:36;30.10;53.10
21355;DHT22;10835;50.148;19.760;2023-06-10T03:21:08;30.00;52.90
21355;DHT22;10835;50.148;19.760;2023-06-10T03:23:37;30.10;53.00
21355;DHT22;10835;50.148;19.760;2023-06-10T03:26:05;30.20;52.70
21355;DHT22;10835;50.148;19.760;2023-06-10T03:28:39;30.20;52.70
21355;DHT22;10835;50.148;19.760;2023-06-10T03:31:08;30.00;52.60
21355;DHT22;10835;50.148;19.760;2023-06-10T03:33:37;30.00;52.90
21355;DHT22;10835;50.148;19.760;2023-06-10T03:36:06;30.20;52.80
21355;DHT22;10835;50.148;19.760;2023-06-10T03:38:35;30.20;52.70
21355;DHT22;10835;50.148;19.760;2023-06-10T03:41:06;30.10;52.80
21355;DHT22;10835;50.148;19.760;2023-06-10T03:43:34;30.20;52.70
21355;DHT22;10835;50.148;19.760;2023-06-10T03:46:04;30.20;52.60
21355;DHT22;10835;50.148;19.760;2023-06-10T03:48:33;30.10;52.60
21355;DHT22;10835;50.148;19.760;2023-06-10T03:51:01;30.10;52.50
21355;DHT22;10835;50.148;19.760;2023-06-10T03:53:30;30.00;52.20
21355;DHT22;10835;50.148;19.760;2023-06-10T03:55:58;30.00;52.40
21355;DHT22;10835;50.148;19.760;2023-06-10T03:58:26;30.20;52.20
21355;DHT22;10835;50.148;19.760;2023-06-10T04:00:55;30.20;52.20
21355;DHT22;10835;50.148;19.760;2023-06-10T04:03:33;30.30;51.70
21355;DHT22;10835;50.148;19.760;2023-06-10T04:06:01;30.00;51.60
21355;DHT22;10835;50.148;19.760;2023-06-10T04:08:29;30.00;51.80
21355;DHT22;10835;50.148;19.760;2023-06-10T04:10:59;29.90;51.60
21355;DHT22;10835;50.148;19.760;2023-06-10T04:13:27;30.00;52.00
21355;DHT22;10835;50.148;19.760;2023-06-10T04:15:58;30.10;51.70
21355;DHT22;10835;50.148;19.760;2023-06-10T04:18:27;30.10;51.70
21355;DHT22;10835;50.148;19.760;2023-06-10T04:21:00;30.00;51.60
21355;DHT22;10835;50.148;19.760;2023-06-10T04:23:30;30.00;51.80
21355;DHT22;10835;50.148;19.760;2023-06-10T04:25:59;30.00;51.70
21355;DHT22;10835;50.148;19.760;2023-06-10T04:28:29;30.10;51.60
21355;DHT22;10835;50.148;19.760;2023-06-10T04:30:58;29.90;51.60
21355;DHT22;10835;50.148;19.760;2023-06-10T04:33:28;30.00;51.90
21355;DHT22;10835;50.148;19.760;2023-06-10T04:35:56;30.20;52.10
21355;DHT22;10835;50.148;19.760;2023-06-10T04:38:31;30.10;51.10
21355;DHT22;10835;50.148;19.760;2023-06-10T04:41:00;30.00;51.60
21355;DHT22;10835;50.148;19.760;2023-06-10T04:43:32;30.20;51.40
21355;DHT22;10835;50.148;19.760;2023-06-10T04:46:01;29.90;51.60
21355;DHT22;10835;50.148;19.760;2023-06-10T04:48:31;29.70;51.90
21355;DHT22;10835;50.148;19.760;2023-06-10T04:51:03;29.90;51.80
21355;DHT22;10835;50.148;19.760;2023-06-10T04:53:33;29.60;51.70
21355;DHT22;10835;50.148;19.760;2023-06-10T04:56:01;29.70;52.20
21355;DHT22;10835;50.148;19.760;2023-06-10T04:58:30;29.70;52.20
21355;DHT22;10835;50.148;19.760;2023-06-10T05:00:58;29.70;51.80
21355;DHT22;10835;50.148;19.760;2023-06-10T05:03:26;29.60;52.10
21355;DHT22;10835;50.148;19.760;2023-06-10T05:05:55;29.60;52.40
21355;DHT22;10835;50.148;19.760;2023-06-10T05:08:23;29.70;52.60
21355;DHT22;10835;50.148;19.760;2023-06-10T05:10:52;29.90;52.50
21355;DHT22;10835;50.148;19.760;2023-06-10T05:13:21;30.20;51.70
21355;DHT22;10835;50.148;19.760;2023-06-10T05:15:49;30.30;52.30
21355;DHT22;10835;50.148;19.760;2023-06-10T05:18:20;30.30;51.80
21355;DHT22;10835;50.148;19.760;2023-06-10T05:20:49;30.60;52.30
21355;DHT22;10835;50.148;19.760;2023-06-10T05:23:17;30.60;51.40
21355;DHT22;10835;50.148;19.760;2023-06-10T05:25:46;30.70;52.70
21355;DHT22;10835;50.148;19.760;2023-06-10T05:28:16;30.70;51.40
21355;DHT22;10835;50.148;19.760;2023-06-10T05:30:45;30.70;50.80
21355;DHT22;10835;50.148;19.760;2023-06-10T05:33:13;30.90;51.00
21355;DHT22;10835;50.148;19.760;2023-06-10T05:35:42;31.10;51.60
21355;DHT22;10835;50.148;19.760;2023-06-10T05:38:10;31.20;50.30
21355;DHT22;10835;50.148;19.760;2023-06-10T05:40:38;31.30;49.60
21355;DHT22;10835;50.148;19.760;2023-06-10T05:43:06;31.30;49.80
21355;DHT22;10835;50.148;19.760;2023-06-10T05:45:40;31.40;50.10
21355;DHT22;10835;50.148;19.760;2023-06-10T05:48:09;31.60;50.20
21355;DHT22;10835;50.148;19.760;2023-06-10T05:50:40;31.80;49.60
21355;DHT22;10835;50.148;19.760;2023-06-10T05:53:09;31.80;48.80
21355;DHT22;10835;50.148;19.760;2023-06-10T05:55:42;31.90;49.50
21355;DHT22;10835;50.148;19.760;2023-06-10T05:58:11;31.80;48.80
21355;DHT22;10835;50.148;19.760;2023-06-10T06:00:41;32.00;49.10
21355;DHT22;10835;50.148;19.760;2023-06-10T06:03:09;31.90;49.40
21355;DHT22;10835;50.148;19.760;2023-06-10T06:05:38;32.00;49.00
21355;DHT22;10835;50.148;19.760;2023-06-10T06:08:06;31.90;48.20
21355;DHT22;10835;50.148;19.760;2023-06-10T06:10:35;32.00;48.40
21355;DHT22;10835;50.148;19.760;2023-06-10T06:13:03;32.00;49.10
21355;DHT22;10835;50.148;19.760;2023-06-10T06:15:32;32.00;48.70
21355;DHT22;10835;50.148;19.760;2023-06-10T06:18:01;32.10;48.50
21355;DHT22;10835;50.148;19.760;2023-06-10T06:20:30;32.20;48.90
21355;DHT22;10835;50.148;19.760;2023-06-10T06:22:58;32.00;48.90
21355;DHT22;10835;50.148;19.760;2023-06-10T06:25:26;32.00;48.80
21355;DHT22;10835;50.148;19.760;2023-06-10T06:27:54;31.90;48.60
21355;DHT22;10835;50.148;19.760;2023-06-10T06:30:23;31.80;49.00
21355;DHT22;10835;50.148;19.760;2023-06-10T06:32:51;31.80;48.80
21355;DHT22;10835;50.148;19.760;2023-06-10T06:35:21;31.80;49.10
21355;DHT22;10835;50.148;19.760;2023-06-10T06:37:49;31.70;49.70
21355;DHT22;10835;50.148;19.760;2023-06-10T06:40:23;31.80;49.20
21355;DHT22;10835;50.148;19.760;2023-06-10T06:42:51;31.90;49.00
21355;DHT22;10835;50.148;19.760;2023-06-10T06:45:37;31.90;48.50
21355;DHT22;10835;50.148;19.760;2023-06-10T06:48:08;31.60;48.40
21355;DHT22;10835;50.148;19.760;2023-06-10T06:50:38;31.80;48.70
21355;DHT22;10835;50.148;19.760;2023-06-10T06:53:08;31.80;48.80
21355;DHT22;10835;50.148;19.760;2023-06-10T06:55:36;31.70;48.60
21355;DHT22;10835;50.148;19.760;2023-06-10T06:58:06;31.80;48.90
21355;DHT22;10835;50.148;19.760;2023-06-10T07:00:35;32.00;48.80
21355;DHT22;10835;50.148;19.760;2023-06-10T07:03:05;32.00;48.90
21355;DHT22;10835;50.148;19.760;2023-06-10T07:05:33;32.00;48.70
21355;DHT22;10835;50.148;19.760;2023-06-10T07:08:04;31.80;49.00
21355;DHT22;10835;50.148;19.760;2023-06-10T07:10:33;31.70;48.60
21355;DHT22;10835;50.148;19.760;2023-06-10T07:13:01;31.60;49.00
21355;DHT22;10835;50.148;19.760;2023-06-10T07:15:30;31.80;49.00
21355;DHT22;10835;50.148;19.760;2023-06-10T07:18:00;31.80;49.60
21355;DHT22;10835;50.148;19.760;2023-06-10T07:20:28;31.90;49.40
21355;DHT22;10835;50.148;19.760;2023-06-10T07:22:56;32.00;49.30
21355;DHT22;10835;50.148;19.760;2023-06-10T07:25:26;32.00;48.80
21355;DHT22;10835;50.148;19.760;2023-06-10T07:27:54;32.10;49.00
21355;DHT22;10835;50.148;19.760;2023-06-10T07:30:22;32.20;48.90
21355;DHT22;10835;50.148;19.760;2023-06-10T07:32:51;32.00;48.50
21355;DHT22;10835;50.148;19.760;2023-06-10T07:35:22;32.00;48.50
21355;DHT22;10835;50.148;19.760;2023-06-10T07:37:51;32.00;48.80
21355;DHT22;10835;50.148;19.760;2023-06-10T07:40:19;32.00;48.30
21355;DHT22;10835;50.148;19.760;2023-06-10T07:42:48;31.90;49.10
21355;DHT22;10835;50.148;19.760;2023-06-10T07:45:19;31.70;49.20
21355;DHT22;10835;50.148;19.760;2023-06-10T07:47:47;31.80;49.00
21355;DHT22;10835;50.148;19.760;2023-06-10T07:50:16;31.90;49.00
21355;DHT22;10835;50.148;19.760;2023-06-10T07:52:47;32.00;48.60
21355;DHT22;10835;50.148;19.760;2023-06-10T07:55:15;31.90;49.30
21355;DHT22;10835;50.148;19.760;2023-06-10T07:57:43;32.00;49.10
21355;DHT22;10835;50.148;19.760;2023-06-10T08:00:14;32.30;49.80
21355;DHT22;10835;50.148;19.760;2023-06-10T08:02:42;32.40;49.00
21355;DHT22;10835;50.148;19.760;2023-06-10T08:05:10;32.50;48.60
21355;DHT22;10835;50.148;19.760;2023-06-10T08:07:39;32.60;48.30
21355;DHT22;10835;50.148;19.760;2023-06-10T08:10:09;32.50;47.10
21355;DHT22;10835;50.148;19.760;2023-06-10T08:12:38;32.70;47.20
21355;DHT22;10835;50.148;19.760;2023-06-10T08:15:07;32.80;47.20
21355;DHT22;10835;50.148;19.760;2023-06-10T08:17:37;32.90;46.80
21355;DHT22;10835;50.148;19.760;2023-06-10T08:20:06;32.80;48.10
21355;DHT22;10835;50.148;19.760;2023-06-10T08:22:35;33.00;47.80
21355;DHT22;10835;50.148;19.760;2023-06-10T08:25:07;33.10;47.80
21355;DHT22;10835;50.148;19.760;2023-06-10T08:27:36;33.40;48.10
21355;DHT22;10835;50.148;19.760;2023-06-10T08:30:06;33.60;47.20
21355;DHT22;10835;50.148;19.760;2023-06-10T08:32:34;33.50;45.90
21355;DHT22;10835;50.148;19.760;2023-06-10T08:35:05;33.50;46.20
21355;DHT22;10835;50.148;19.760;2023-06-10T08:37:33;33.70;46.70
21355;DHT22;10835;50.148;19.760;2023-06-10T08:40:02;33.50;46.80
21355;DHT22;10835;50.148;19.760;2023-06-10T08:42:36;33.90;46.10
21355;DHT22;10835;50.148;19.760;2023-06-10T08:45:08;33.80;45.30
21355;DHT22;10835;50.148;19.760;2023-06-10T08:47:39;33.70;45.60
21355;DHT22;10835;50.148;19.760;2023-06-10T08:50:10;33.20;45.60
21355;DHT22;10835;50.148;19.760;2023-06-10T08:52:43;33.40;45.60
21355;DHT22;10835;50.148;19.760;2023-06-10T08:55:14;33.30;45.90
21355;DHT22;10835;50.148;19.760;2023-06-10T08:57:45;33.40;45.30
21355;DHT22;10835;50.148;19.760;2023-06-10T09:00:16;33.30;45.50
21355;DHT22;10835;50.148;19.760;2023-06-10T09:02:44;33.30;45.90
21355;DHT22;10835;50.148;19.760;2023-06-10T09:05:14;33.30;46.20
21355;DHT22;10835;50.148;19.760;2023-06-10T09:07:45;33.30;45.60
21355;DHT22;10835;50.148;19.760;2023-06-10T09:10:14;33.30;45.50
21355;DHT22;10835;50.148;19.760;2023-06-10T09:12:42;33.10;46.60
21355;DHT22;10835;50.148;19.760;2023-06-10T09:15:10;32.90;46.00
21355;DHT22;10835;50.148;19.760;2023-06-10T09:17:41;32.90;47.20
21355;DHT22;10835;50.148;19.760;2023-06-10T09:20:10;33.10;47.20
21355;DHT22;10835;50.148;19.760;2023-06-10T09:22:42;33.10;46.90
21355;DHT22;10835;50.148;19.760;2023-06-10T09:25:12;33.00;46.70
21355;DHT22;10835;50.148;19.760;2023-06-10T09:27:45;33.00;47.00
21355;DHT22;10835;50.148;19.760;2023-06-10T09:30:24;33.10;47.10
21355;DHT22;10835;50.148;19.760;2023-06-10T09:32:55;33.00;47.00
21355;DHT22;10835;50.148;19.760;2023-06-10T09:35:24;33.10;45.80
21355;DHT22;10835;50.148;19.760;2023-06-10T09:37:56;33.10;45.70
21355;DHT22;10835;50.148;19.760;2023-06-10T09:40:27;33.10;46.30
21355;DHT22;10835;50.148;19.760;2023-06-10T09:42:57;33.20;47.00
21355;DHT22;10835;50.148;19.760;2023-06-10T09:45:29;33.30;46.30
21355;DHT22;10835;50.148;19.760;2023-06-10T09:47:59;33.50;47.10
21355;DHT22;10835;50.148;19.760;2023-06-10T09:50:27;33.70;47.10
21355;DHT22;10835;50.148;19.760;2023-06-10T09:52:57;33.70;47.00
21355;DHT22;10835;50.148;19.760;2023-06-10T09:55:25;33.80;46.80
21355;DHT22;10835;50.148;19.760;2023-06-10T09:57:54;34.00;45.20
21355;DHT22;10835;50.148;19.760;2023-06-10T10:00:22;34.10;45.60
21355;DHT22;10835;50.148;19.760;2023-06-10T10:02:53;34.10;45.90
21355;DHT22;10835;50.148;19.760;2023-06-10T10:05:22;34.00;47.40
21355;DHT22;10835;50.148;19.760;2023-06-10T10:07:51;34.20;46.20
21355;DHT22;10835;50.148;19.760;2023-06-10T10:10:21;34.10;45.50
21355;DHT22;10835;50.148;19.760;2023-06-10T10:12:54;33.90;45.30
21355;DHT22;10835;50.148;19.760;2023-06-10T10:15:25;33.80;45.60
21355;DHT22;10835;50.148;19.760;2023-06-10T10:18:07;33.70;46.20
21355;DHT22;10835;50.148;19.760;2023-06-10T10:20:50;33.60;46.70
21355;DHT22;10835;50.148;19.760;2023-06-10T10:23:26;33.60;44.60
21355;DHT22;10835;50.148;19.760;2023-06-10T10:26:00;33.50;45.00
21355;DHT22;10835;50.148;19.760;2023-06-10T10:28:40;33.50;45.70
21355;DHT22;10835;50.148;19.760;2023-06-10T10:31:10;33.70;45.50
21355;DHT22;10835;50.148;19.760;2023-06-10T10:33:45;33.70;44.80
21355;DHT22;10835;50.148;19.760;2023-06-10T10:36:20;33.80;45.50
21355;DHT22;10835;50.148;19.760;2023-06-10T10:38:48;33.90;45.70
21355;DHT22;10835;50.148;19.760;2023-06-10T10:41:21;33.80;45.60
21355;DHT22;10835;50.148;19.760;2023-06-10T10:43:52;33.70;45.90
21355;DHT22;10835;50.148;19.760;2023-06-10T10:46:20;33.70;45.90
21355;DHT22;10835;50.148;19.760;2023-06-10T10:48:52;33.60;48.00
21355;DHT22;10835;50.148;19.760;2023-06-10T10:51:22;33.70;44.90
21355;DHT22;10835;50.148;19.760;2023-06-10T10:54:10;33.70;45.20
21355;DHT22;10835;50.148;19.760;2023-06-10T10:59:54;33.40;45.30
21355;DHT22;10835;50.148;19.760;2023-06-10T11:02:37;33.10;46.00
21355;DHT22;10835;50.148;19.760;2023-06-10T11:05:14;33.10;45.30
21355;DHT22;10835;50.148;19.760;2023-06-10T11:07:53;33.00;46.50
21355;DHT22;10835;50.148;19.760;2023-06-10T11:10:29;32.90;46.10
21355;DHT22;10835;50.148;19.760;2023-06-10T11:12:59;33.10;46.40
21355;DHT22;10835;50.148;19.760;2023-06-10T11:15:29;33.00;45.70
21355;DHT22;10835;50.148;19.760;2023-06-10T11:18:22;32.90;45.40
21355;DHT22;10835;50.148;19.760;2023-06-10T11:20:52;33.00;45.50
21355;DHT22;10835;50.148;19.760;2023-06-10T11:23:37;32.90;45.30
21355;DHT22;10835;50.148;19.760;2023-06-10T11:26:20;32.70;45.90
21355;DHT22;10835;50.148;19.760;2023-06-10T11:29:06;32.70;46.40
21355;DHT22;10835;50.148;19.760;2023-06-10T11:31:42;32.90;45.70
21355;DHT22;10835;50.148;19.760;2023-06-10T11:34:12;32.90;45.40
21355;DHT22;10835;50.148;19.760;2023-06-10T11:36:41;32.90;45.70
21355;DHT22;10835;50.148;19.760;2023-06-10T11:39:12;33.10;46.70
21355;DHT22;10835;50.148;19.760;2023-06-10T11:41:45;33.30;45.60
21355;DHT22;10835;50.148;19.760;2023-06-10T11:44:14;33.00;45.60
21355;DHT22;10835;50.148;19.760;2023-06-10T11:46:48;32.90;46.20
21355;DHT22;10835;50.148;19.760;2023-06-10T11:49:16;32.90;46.20
21355;DHT22;10835;50.148;19.760;2023-06-10T11:51:47;32.70;46.50
21355;DHT22;10835;50.148;19.760;2023-06-10T11:54:18;32.70;46.90
21355;DHT22;10835;50.148;19.760;2023-06-10T11:56:47;32.80;46.60
21355;DHT22;10835;50.148;19.760;2023-06-10T11:59:15;32.80;46.10
21355;DHT22;10835;50.148;19.760;2023-06-10T12:01:44;32.70;47.50
21355;DHT22;10835;50.148;19.760;2023-06-10T12:04:16;32.70;46.80
21355;DHT22;10835;50.148;19.760;2023-06-10T12:06:46;32.60;46.50
21355;DHT22;10835;50.148;19.760;2023-06-10T12:09:19;32.50;46.50
21355;DHT22;10835;50.148;19.760;2023-06-10T12:11:57;32.50;47.40
21355;DHT22;10835;50.148;19.760;2023-06-10T12:14:50;32.60;46.30
21355;DHT22;10835;50.148;19.760;2023-06-10T12:17:21;32.50;46.40
21355;DHT22;10835;50.148;19.760;2023-06-10T12:19:51;32.50;46.80
21355;DHT22;10835;50.148;19.760;2023-06-10T12:22:20;32.50;47.80
21355;DHT22;10835;50.148;19.760;2023-06-10T12:25:00;32.50;46.70
21355;DHT22;10835;50.148;19.760;2023-06-10T12:27:30;32.70;47.00
21355;DHT22;10835;50.148;19.760;2023-06-10T12:29:59;32.70;46.80
21355;DHT22;10835;50.148;19.760;2023-06-10T12:32:39;32.60;45.90
21355;DHT22;10835;50.148;19.760;2023-06-10T12:35:10;32.70;45.80
21355;DHT22;10835;50.148;19.760;2023-06-10T12:37:43;32.70;45.40
21355;DHT22;10835;50.148;19.760;2023-06-10T12:40:12;32.50;45.50
21355;DHT22;10835;50.148;19.760;2023-06-10T12:42:41;32.60;45.80
21355;DHT22;10835;50.148;19.760;2023-06-10T12:45:09;32.50;46.50
21355;DHT22;10835;50.148;19.760;2023-06-10T12:47:40;32.40;46.40
21355;DHT22;10835;50.148;19.760;2023-06-10T12:50:10;32.40;46.50
21355;DHT22;10835;50.148;19.760;2023-06-10T12:52:40;32.60;46.80
21355;DHT22;10835;50.148;19.760;2023-06-10T12:55:09;32.70;45.10
21355;DHT22;10835;50.148;19.760;2023-06-10T12:57:48;32.80;45.90
21355;DHT22;10835;50.148;19.760;2023-06-10T13:00:18;33.00;45.50
21355;DHT22;10835;50.148;19.760;2023-06-10T13:02:48;33.20;45.20
21355;DHT22;10835;50.148;19.760;2023-06-10T13:05:19;33.30;45.10
21355;DHT22;10835;50.148;19.760;2023-06-10T13:07:48;33.40;44.60
21355;DHT22;10835;50.148;19.760;2023-06-10T13:10:17;33.30;44.40
21355;DHT22;10835;50.148;19.760;2023-06-10T13:12:47;33.30;44.30
21355;DHT22;10835;50.148;19.760;2023-06-10T13:15:16;33.40;44.30
21355;DHT22;10835;50.148;19.760;2023-06-10T13:17:45;33.50;44.20
21355;DHT22;10835;50.148;19.760;2023-06-10T13:20:16;33.50;44.80
21355;DHT22;10835;50.148;19.760;2023-06-10T13:22:46;33.60;45.30
21355;DHT22;10835;50.148;19.760;2023-06-10T13:25:14;33.50;44.80
21355;DHT22;10835;50.148;19.760;2023-06-10T13:27:43;33.50;45.30
21355;DHT22;10835;50.148;19.760;2023-06-10T13:30:12;33.40;45.20
21355;DHT22;10835;50.148;19.760;2023-06-10T13:32:43;33.60;45.00
21355;DHT22;10835;50.148;19.760;2023-06-10T13:35:11;33.40;45.40
21355;DHT22;10835;50.148;19.760;2023-06-10T13:37:40;33.40;46.20
21355;DHT22;10835;50.148;19.760;2023-06-10T13:40:10;33.50;46.00
21355;DHT22;10835;50.148;19.760;2023-06-10T13:42:42;33.40;45.70
21355;DHT22;10835;50.148;19.760;2023-06-10T13:45:11;33.60;45.10
21355;DHT22;10835;50.148;19.760;2023-06-10T13:47:40;33.50;45.90
21355;DHT22;10835;50.148;19.760;2023-06-10T13:50:09;33.30;45.50
21355;DHT22;10835;50.148;19.760;2023-06-10T13:52:37;33.30;45.40
21355;DHT22;10835;50.148;19.760;2023-06-10T13:55:09;33.40;45.30
21355;DHT22;10835;50.148;19.760;2023-06-10T13:57:38;33.40;45.90
21355;DHT22;10835;50.148;19.760;2023-06-10T14:00:10;33.30;46.20
21355;DHT22;10835;50.148;19.760;2023-06-10T14:02:40;33.40;45.80
21355;DHT22;10835;50.148;19.760;2023-06-10T14:05:08;33.30;45.30
21355;DHT22;10835;50.148;19.760;2023-06-10T14:07:37;33.40;44.80
21355;DHT22;10835;50.148;19.760;2023-06-10T14:10:09;33.20;45.10
21355;DHT22;10835;50.148;19.760;2023-06-10T14:12:39;33.20;44.80
21355;DHT22;10835;50.148;19.760;2023-06-10T14:15:07;33.10;45.30
21355;DHT22;10835;50.148;19.760;2023-06-10T14:17:44;33.20;45.80
21355;DHT22;10835;50.148;19.760;2023-06-10T14:20:12;33.10;45.30
21355;DHT22;10835;50.148;19.760;2023-06-10T14:22:42;33.30;45.90
21355;DHT22;10835;50.148;19.760;2023-06-10T14:25:11;33.40;46.80
21355;DHT22;10835;50.148;19.760;2023-06-10T14:27:42;33.50;44.80
21355;DHT22;10835;50.148;19.760;2023-06-10T14:30:11;33.50;45.00
21355;DHT22;10835;50.148;19.760;2023-06-10T14:32:39;33.60;44.80
21355;DHT22;10835;50.148;19.760;2023-06-10T14:35:08;33.70;43.70
21355;DHT22;10835;50.148;19.760;2023-06-10T14:37:37;33.40;44.60
21355;DHT22;10835;50.148;19.760;2023-06-10T14:40:08;33.30;44.20
21355;DHT22;10835;50.148;19.760;2023-06-10T14:42:38;33.60;43.90
21355;DHT22;10835;50.148;19.760;2023-06-10T14:45:07;33.40;44.20
21355;DHT22;10835;50.148;19.760;2023-06-10T14:47:37;33.40;44.80
21355;DHT22;10835;50.148;19.760;2023-06-10T14:50:06;33.40;45.50
21355;DHT22;10835;50.148;19.760;2023-06-10T14:52:35;33.50;44.80
21355;DHT22;10835;50.148;19.760;2023-06-10T14:55:05;33.70;44.80
21355;DHT22;10835;50.148;19.760;2023-06-10T14:57:34;33.80;44.40
21355;DHT22;10835;50.148;19.760;2023-06-10T15:00:05;33.90;44.10
21355;DHT22;10835;50.148;19.760;2023-06-10T15:02:34;33.70;44.50
21355;DHT22;10835;50.148;19.760;2023-06-10T15:05:03;33.80;44.10
21355;DHT22;10835;50.148;19.760;2023-06-10T15:07:31;33.60;43.60
21355;DHT22;10835;50.148;19.760;2023-06-10T15:10:03;33.40;43.20
21355;DHT22;10835;50.148;19.760;2023-06-10T15:12:31;33.30;43.80
21355;DHT22;10835;50.148;19.760;2023-06-10T15:15:03;33.30;43.40
21355;DHT22;10835;50.148;19.760;2023-06-10T15:17:32;33.30;43.80
21355;DHT22;10835;50.148;19.760;2023-06-10T15:20:02;33.20;43.40
21355;DHT22;10835;50.148;19.760;2023-06-10T15:22:30;33.10;43.40
21355;DHT22;10835;50.148;19.760;2023-06-10T15:25:02;32.90;42.40
21355;DHT22;10835;50.148;19.760;2023-06-10T15:27:51;32.90;42.30
21355;DHT22;10835;50.148;19.760;2023-06-10T15:30:20;33.10;42.40
21355;DHT22;10835;50.148;19.760;2023-06-10T15:32:49;32.90;42.30
21355;DHT22;10835;50.148;19.760;2023-06-10T15:35:17;33.00;42.70
21355;DHT22;10835;50.148;19.760;2023-06-10T15:37:48;32.90;42.90